Terminal Aerodrome Forecast
Issued by NWS

Home | Current Version | Previous Version | Text Only | Print | Product List | Glossary On
Versions: 1 2 3 4 5 6 7 8 9 10 11 12 13 14 15 16 17 18 19 20 21 22 23
000
FTUS43 KGRR 032111 AAB
TAFLAN
TAF AMD
KLAN 032111Z 0321/0418 19015G26KT P6SM FEW022 SCT080 BKN110
     FM032200 23012KT P6SM VCTS SCT035CB BKN090 OVC250
     FM040500 00000KT 3SM BR SCT015
     FM040700 00000KT 2SM BR BKN007
     FM041400 18005KT 3SM BR BKN200
     FM041500 21007KT P6SM BKN050=

USA.gov is the U.S. government's official web portal to all federal, state and local government web resources and services.